sensor_id;sensor_type;location;lat;lon;timestamp;temperature;humidity
36280;DHT22;22317;47.936;12.742;2023-04-24T00:00:55;9.60;60.90
36280;DHT22;22317;47.936;12.742;2023-04-24T00:03:26;9.60;61.00
36280;DHT22;22317;47.936;12.742;2023-04-24T00:05:54;9.50;61.00
36280;DHT22;22317;47.936;12.742;2023-04-24T00:08:19;9.50;61.30
36280;DHT22;22317;47.936;12.742;2023-04-24T00:10:45;9.50;61.30
36280;DHT22;22317;47.936;12.742;2023-04-24T00:13:11;9.50;61.40
36280;DHT22;22317;47.936;12.742;2023-04-24T00:15:37;9.50;61.10
36280;DHT22;22317;47.936;12.742;2023-04-24T00:18:02;9.40;61.00
36280;DHT22;22317;47.936;12.742;2023-04-24T00:20:28;9.30;61.10
36280;DHT22;22317;47.936;12.742;2023-04-24T00:23:01;9.30;61.30
36280;DHT22;22317;47.936;12.742;2023-04-24T00:25:26;9.30;61.30
36280;DHT22;22317;47.936;12.742;2023-04-24T00:27:52;9.30;61.20
36280;DHT22;22317;47.936;12.742;2023-04-24T00:30:18;9.20;61.30
36280;DHT22;22317;47.936;12.742;2023-04-24T00:32:44;9.20;61.20
36280;DHT22;22317;47.936;12.742;2023-04-24T00:35:09;9.10;61.20
36280;DHT22;22317;47.936;12.742;2023-04-24T00:37:36;9.10;61.30
36280;DHT22;22317;47.936;12.742;2023-04-24T00:40:02;9.00;61.40
36280;DHT22;22317;47.936;12.742;2023-04-24T00:42:28;9.00;61.40
36280;DHT22;22317;47.936;12.742;2023-04-24T00:44:55;9.00;61.40
36280;DHT22;22317;47.936;12.742;2023-04-24T00:47:21;9.00;61.60
36280;DHT22;22317;47.936;12.742;2023-04-24T00:49:47;9.00;61.70
36280;DHT22;22317;47.936;12.742;2023-04-24T00:52:13;9.00;61.50
36280;DHT22;22317;47.936;12.742;2023-04-24T00:54:44;8.90;61.50
36280;DHT22;22317;47.936;12.742;2023-04-24T00:57:10;8.90;61.40
36280;DHT22;22317;47.936;12.742;2023-04-24T00:59:36;8.80;61.30
36280;DHT22;22317;47.936;12.742;2023-04-24T01:02:03;8.80;61.10
36280;DHT22;22317;47.936;12.742;2023-04-24T01:04:29;8.70;61.30
36280;DHT22;22317;47.936;12.742;2023-04-24T01:06:55;8.70;62.00
36280;DHT22;22317;47.936;12.742;2023-04-24T01:09:23;8.70;61.50
36280;DHT22;22317;47.936;12.742;2023-04-24T01:11:50;8.70;61.60
36280;DHT22;22317;47.936;12.742;2023-04-24T01:14:16;8.70;61.70
36280;DHT22;22317;47.936;12.742;2023-04-24T01:16:42;8.70;61.70
36280;DHT22;22317;47.936;12.742;2023-04-24T01:19:10;8.80;61.70
36280;DHT22;22317;47.936;12.742;2023-04-24T01:21:37;8.80;61.70
36280;DHT22;22317;47.936;12.742;2023-04-24T01:24:04;8.80;61.60
36280;DHT22;22317;47.936;12.742;2023-04-24T01:26:31;8.80;61.70
36280;DHT22;22317;47.936;12.742;2023-04-24T01:28:57;8.80;61.50
36280;DHT22;22317;47.936;12.742;2023-04-24T01:31:23;8.80;61.50
36280;DHT22;22317;47.936;12.742;2023-04-24T01:33:50;8.80;61.40
36280;DHT22;22317;47.936;12.742;2023-04-24T01:36:16;8.80;61.30
36280;DHT22;22317;47.936;12.742;2023-04-24T01:38:42;8.70;61.30
36280;DHT22;22317;47.936;12.742;2023-04-24T01:41:09;8.70;61.40
36280;DHT22;22317;47.936;12.742;2023-04-24T01:43:35;8.70;61.40
36280;DHT22;22317;47.936;12.742;2023-04-24T01:46:01;8.70;61.60
36280;DHT22;22317;47.936;12.742;2023-04-24T01:48:27;8.70;61.50
36280;DHT22;22317;47.936;12.742;2023-04-24T01:50:53;8.70;61.40
36280;DHT22;22317;47.936;12.742;2023-04-24T01:53:19;8.70;61.40
36280;DHT22;22317;47.936;12.742;2023-04-24T01:55:45;8.70;61.60
36280;DHT22;22317;47.936;12.742;2023-04-24T01:58:12;8.80;61.80
36280;DHT22;22317;47.936;12.742;2023-04-24T02:00:38;8.80;61.70
36280;DHT22;22317;47.936;12.742;2023-04-24T02:03:04;8.90;61.50
36280;DHT22;22317;47.936;12.742;2023-04-24T02:05:29;8.90;61.40
36280;DHT22;22317;47.936;12.742;2023-04-24T02:07:55;9.00;61.30
36280;DHT22;22317;47.936;12.742;2023-04-24T02:10:21;9.00;61.30
36280;DHT22;22317;47.936;12.742;2023-04-24T02:12:47;9.10;61.30
36280;DHT22;22317;47.936;12.742;2023-04-24T02:15:13;9.10;61.10
36280;DHT22;22317;47.936;12.742;2023-04-24T02:17:38;9.20;61.10
36280;DHT22;22317;47.936;12.742;2023-04-24T02:20:06;9.20;61.10
36280;DHT22;22317;47.936;12.742;2023-04-24T02:22:32;9.30;61.20
36280;DHT22;22317;47.936;12.742;2023-04-24T02:25:01;9.30;61.10
36280;DHT22;22317;47.936;12.742;2023-04-24T02:27:26;9.30;61.00
36280;DHT22;22317;47.936;12.742;2023-04-24T02:29:52;9.40;61.00
36280;DHT22;22317;47.936;12.742;2023-04-24T02:32:18;9.40;61.00
36280;DHT22;22317;47.936;12.742;2023-04-24T02:34:44;9.40;60.90
36280;DHT22;22317;47.936;12.742;2023-04-24T02:37:11;9.50;60.70
36280;DHT22;22317;47.936;12.742;2023-04-24T02:39:37;9.50;60.60
36280;DHT22;22317;47.936;12.742;2023-04-24T02:42:03;9.50;60.60
36280;DHT22;22317;47.936;12.742;2023-04-24T02:44:29;9.50;60.50
36280;DHT22;22317;47.936;12.742;2023-04-24T02:46:55;9.50;60.50
36280;DHT22;22317;47.936;12.742;2023-04-24T02:49:22;9.50;60.60
36280;DHT22;22317;47.936;12.742;2023-04-24T02:51:48;9.50;60.60
36280;DHT22;22317;47.936;12.742;2023-04-24T02:54:13;9.50;60.60
36280;DHT22;22317;47.936;12.742;2023-04-24T02:56:39;9.50;60.60
36280;DHT22;22317;47.936;12.742;2023-04-24T02:59:06;9.50;60.70
36280;DHT22;22317;47.936;12.742;2023-04-24T03:01:32;9.50;60.70
36280;DHT22;22317;47.936;12.742;2023-04-24T03:03:58;9.50;60.70
36280;DHT22;22317;47.936;12.742;2023-04-24T03:06:23;9.50;60.60
36280;DHT22;22317;47.936;12.742;2023-04-24T03:08:49;9.50;60.70
36280;DHT22;22317;47.936;12.742;2023-04-24T03:11:15;9.60;60.60
36280;DHT22;22317;47.936;12.742;2023-04-24T03:13:41;9.60;60.60
36280;DHT22;22317;47.936;12.742;2023-04-24T03:16:06;9.60;60.50
36280;DHT22;22317;47.936;12.742;2023-04-24T03:18:32;9.60;60.40
36280;DHT22;22317;47.936;12.742;2023-04-24T03:20:58;9.60;60.40
36280;DHT22;22317;47.936;12.742;2023-04-24T03:23:24;9.60;60.40
36280;DHT22;22317;47.936;12.742;2023-04-24T03:25:50;9.60;60.40
36280;DHT22;22317;47.936;12.742;2023-04-24T03:28:18;9.60;60.40
36280;DHT22;22317;47.936;12.742;2023-04-24T03:30:51;9.60;60.40
36280;DHT22;22317;47.936;12.742;2023-04-24T03:33:17;9.60;60.40
36280;DHT22;22317;47.936;12.742;2023-04-24T03:35:53;9.60;60.30
36280;DHT22;22317;47.936;12.742;2023-04-24T03:38:19;9.60;60.30
36280;DHT22;22317;47.936;12.742;2023-04-24T03:41:08;9.60;60.20
36280;DHT22;22317;47.936;12.742;2023-04-24T03:43:45;9.60;60.20
36280;DHT22;22317;47.936;12.742;2023-04-24T03:46:10;9.60;60.30
36280;DHT22;22317;47.936;12.742;2023-04-24T03:48:41;9.50;60.20
36280;DHT22;22317;47.936;12.742;2023-04-24T03:51:08;9.50;60.40
36280;DHT22;22317;47.936;12.742;2023-04-24T03:53:35;9.50;60.30
36280;DHT22;22317;47.936;12.742;2023-04-24T03:56:01;9.50;60.40
36280;DHT22;22317;47.936;12.742;2023-04-24T03:58:28;9.50;60.40
36280;DHT22;22317;47.936;12.742;2023-04-24T04:00:55;9.60;60.50
36280;DHT22;22317;47.936;12.742;2023-04-24T04:03:41;9.50;60.50
36280;DHT22;22317;47.936;12.742;2023-04-24T04:06:07;9.60;60.50
36280;DHT22;22317;47.936;12.742;2023-04-24T04:08:33;9.60;60.40
36280;DHT22;22317;47.936;12.742;2023-04-24T04:10:59;9.60;60.40
36280;DHT22;22317;47.936;12.742;2023-04-24T04:13:25;9.50;60.50
36280;DHT22;22317;47.936;12.742;2023-04-24T04:15:51;9.50;60.50
36280;DHT22;22317;47.936;12.742;2023-04-24T04:18:16;9.50;60.50
36280;DHT22;22317;47.936;12.742;2023-04-24T04:20:42;9.50;60.50
36280;DHT22;22317;47.936;12.742;2023-04-24T04:23:10;9.50;60.60
36280;DHT22;22317;47.936;12.742;2023-04-24T04:25:47;9.50;60.60
36280;DHT22;22317;47.936;12.742;2023-04-24T04:28:13;9.50;60.50
36280;DHT22;22317;47.936;12.742;2023-04-24T04:30:39;9.50;60.30
36280;DHT22;22317;47.936;12.742;2023-04-24T04:33:05;9.50;60.40
36280;DHT22;22317;47.936;12.742;2023-04-24T04:35:33;9.50;60.50
36280;DHT22;22317;47.936;12.742;2023-04-24T04:37:59;9.50;60.50
36280;DHT22;22317;47.936;12.742;2023-04-24T04:40:34;9.50;60.50
36280;DHT22;22317;47.936;12.742;2023-04-24T04:43:03;9.50;60.50
36280;DHT22;22317;47.936;12.742;2023-04-24T04:45:37;9.50;60.90
36280;DHT22;22317;47.936;12.742;2023-04-24T04:48:19;9.30;59.80
36280;DHT22;22317;47.936;12.742;2023-04-24T04:50:45;9.20;59.80
36280;DHT22;22317;47.936;12.742;2023-04-24T04:53:11;9.10;59.70
36280;DHT22;22317;47.936;12.742;2023-04-24T04:55:38;9.00;60.00
36280;DHT22;22317;47.936;12.742;2023-04-24T04:58:08;8.90;60.10
36280;DHT22;22317;47.936;12.742;2023-04-24T05:00:34;8.80;60.20
36280;DHT22;22317;47.936;12.742;2023-04-24T05:03:10;8.70;60.10
36280;DHT22;22317;47.936;12.742;2023-04-24T05:05:36;8.60;60.20
36280;DHT22;22317;47.936;12.742;2023-04-24T05:08:07;8.60;60.50
36280;DHT22;22317;47.936;12.742;2023-04-24T05:10:34;8.50;60.50
36280;DHT22;22317;47.936;12.742;2023-04-24T05:13:03;8.50;60.80
36280;DHT22;22317;47.936;12.742;2023-04-24T05:15:29;8.40;60.80
36280;DHT22;22317;47.936;12.742;2023-04-24T05:17:56;8.40;60.90
36280;DHT22;22317;47.936;12.742;2023-04-24T05:20:23;8.30;61.00
36280;DHT22;22317;47.936;12.742;2023-04-24T05:22:48;8.30;61.00
36280;DHT22;22317;47.936;12.742;2023-04-24T05:25:15;8.30;61.10
36280;DHT22;22317;47.936;12.742;2023-04-24T05:27:47;8.20;61.20
36280;DHT22;22317;47.936;12.742;2023-04-24T05:30:15;8.20;61.30
36280;DHT22;22317;47.936;12.742;2023-04-24T05:32:43;8.20;61.50
36280;DHT22;22317;47.936;12.742;2023-04-24T05:35:08;8.20;61.50
36280;DHT22;22317;47.936;12.742;2023-04-24T05:37:35;8.10;61.50
36280;DHT22;22317;47.936;12.742;2023-04-24T05:40:01;8.10;61.60
36280;DHT22;22317;47.936;12.742;2023-04-24T05:42:27;8.10;61.80
36280;DHT22;22317;47.936;12.742;2023-04-24T05:44:52;8.20;62.10
36280;DHT22;22317;47.936;12.742;2023-04-24T05:47:20;8.20;61.90
36280;DHT22;22317;47.936;12.742;2023-04-24T05:49:47;8.30;62.00
36280;DHT22;22317;47.936;12.742;2023-04-24T05:52:13;8.30;62.00
36280;DHT22;22317;47.936;12.742;2023-04-24T05:54:40;8.40;62.10
36280;DHT22;22317;47.936;12.742;2023-04-24T05:57:06;8.40;62.10
36280;DHT22;22317;47.936;12.742;2023-04-24T05:59:54;8.40;62.10
36280;DHT22;22317;47.936;12.742;2023-04-24T06:02:21;8.50;62.10
36280;DHT22;22317;47.936;12.742;2023-04-24T06:04:47;8.50;62.10
36280;DHT22;22317;47.936;12.742;2023-04-24T06:07:13;8.50;62.00
36280;DHT22;22317;47.936;12.742;2023-04-24T06:09:40;8.60;62.00
36280;DHT22;22317;47.936;12.742;2023-04-24T06:12:06;8.60;61.90
36280;DHT22;22317;47.936;12.742;2023-04-24T06:14:47;8.70;62.10
36280;DHT22;22317;47.936;12.742;2023-04-24T06:17:20;8.70;62.00
36280;DHT22;22317;47.936;12.742;2023-04-24T06:19:47;8.80;62.00
36280;DHT22;22317;47.936;12.742;2023-04-24T06:22:13;8.80;61.70
36280;DHT22;22317;47.936;12.742;2023-04-24T06:24:39;8.80;61.60
36280;DHT22;22317;47.936;12.742;2023-04-24T06:27:05;8.90;61.70
36280;DHT22;22317;47.936;12.742;2023-04-24T06:29:33;8.90;61.50
36280;DHT22;22317;47.936;12.742;2023-04-24T06:31:59;8.90;61.30
36280;DHT22;22317;47.936;12.742;2023-04-24T06:34:25;8.90;61.20
36280;DHT22;22317;47.936;12.742;2023-04-24T06:36:51;8.90;60.90
36280;DHT22;22317;47.936;12.742;2023-04-24T06:39:16;8.90;61.00
36280;DHT22;22317;47.936;12.742;2023-04-24T06:41:42;9.00;61.00
36280;DHT22;22317;47.936;12.742;2023-04-24T06:44:17;8.90;60.70
36280;DHT22;22317;47.936;12.742;2023-04-24T06:46:43;8.90;60.60
36280;DHT22;22317;47.936;12.742;2023-04-24T06:49:09;8.90;60.60
36280;DHT22;22317;47.936;12.742;2023-04-24T06:51:35;8.90;60.60
36280;DHT22;22317;47.936;12.742;2023-04-24T06:54:01;8.90;60.50
36280;DHT22;22317;47.936;12.742;2023-04-24T06:56:27;8.90;60.50
36280;DHT22;22317;47.936;12.742;2023-04-24T06:58:54;8.90;61.20
36280;DHT22;22317;47.936;12.742;2023-04-24T07:01:20;9.00;60.50
36280;DHT22;22317;47.936;12.742;2023-04-24T07:03:46;9.00;60.50
36280;DHT22;22317;47.936;12.742;2023-04-24T07:06:12;9.10;60.60
36280;DHT22;22317;47.936;12.742;2023-04-24T07:08:38;9.10;61.00
36280;DHT22;22317;47.936;12.742;2023-04-24T07:11:04;9.20;60.40
36280;DHT22;22317;47.936;12.742;2023-04-24T07:13:30;9.30;60.30
36280;DHT22;22317;47.936;12.742;2023-04-24T07:15:56;9.40;60.40
36280;DHT22;22317;47.936;12.742;2023-04-24T07:18:22;9.50;60.20
36280;DHT22;22317;47.936;12.742;2023-04-24T07:20:48;9.50;60.20
36280;DHT22;22317;47.936;12.742;2023-04-24T07:23:16;9.60;59.80
36280;DHT22;22317;47.936;12.742;2023-04-24T07:25:42;9.60;59.80
36280;DHT22;22317;47.936;12.742;2023-04-24T07:28:08;9.70;59.70
36280;DHT22;22317;47.936;12.742;2023-04-24T07:30:33;9.80;59.60
36280;DHT22;22317;47.936;12.742;2023-04-24T07:32:59;9.80;59.60
36280;DHT22;22317;47.936;12.742;2023-04-24T07:35:26;9.90;59.50
36280;DHT22;22317;47.936;12.742;2023-04-24T07:37:55;10.10;59.70
36280;DHT22;22317;47.936;12.742;2023-04-24T07:40:21;10.20;59.40
36280;DHT22;22317;47.936;12.742;2023-04-24T07:42:47;10.30;59.30
36280;DHT22;22317;47.936;12.742;2023-04-24T07:45:14;10.50;59.30
36280;DHT22;22317;47.936;12.742;2023-04-24T07:47:43;10.60;59.20
36280;DHT22;22317;47.936;12.742;2023-04-24T07:50:11;10.80;59.00
36280;DHT22;22317;47.936;12.742;2023-04-24T07:52:37;10.90;59.00
36280;DHT22;22317;47.936;12.742;2023-04-24T07:55:03;11.00;58.80
36280;DHT22;22317;47.936;12.742;2023-04-24T07:57:29;11.10;58.30
36280;DHT22;22317;47.936;12.742;2023-04-24T07:59:55;11.20;58.30
36280;DHT22;22317;47.936;12.742;2023-04-24T08:02:20;11.30;57.80
36280;DHT22;22317;47.936;12.742;2023-04-24T08:04:52;11.40;57.40
36280;DHT22;22317;47.936;12.742;2023-04-24T08:07:19;11.90;57.30
36280;DHT22;22317;47.936;12.742;2023-04-24T08:09:45;11.40;56.80
36280;DHT22;22317;47.936;12.742;2023-04-24T08:12:11;11.40;56.90
36280;DHT22;22317;47.936;12.742;2023-04-24T08:14:36;11.40;56.80
36280;DHT22;22317;47.936;12.742;2023-04-24T08:17:02;11.50;56.70
36280;DHT22;22317;47.936;12.742;2023-04-24T08:19:29;11.50;56.60
36280;DHT22;22317;47.936;12.742;2023-04-24T08:21:54;11.50;56.50
36280;DHT22;22317;47.936;12.742;2023-04-24T08:24:20;11.50;56.60
36280;DHT22;22317;47.936;12.742;2023-04-24T08:26:46;11.50;56.60
36280;DHT22;22317;47.936;12.742;2023-04-24T08:29:16;11.50;56.20
36280;DHT22;22317;47.936;12.742;2023-04-24T08:31:41;11.40;55.90
36280;DHT22;22317;47.936;12.742;2023-04-24T08:34:08;11.30;55.70
36280;DHT22;22317;47.936;12.742;2023-04-24T08:36:34;11.30;55.80
36280;DHT22;22317;47.936;12.742;2023-04-24T08:39:00;11.20;56.00
36280;DHT22;22317;47.936;12.742;2023-04-24T08:41:27;11.20;55.90
36280;DHT22;22317;47.936;12.742;2023-04-24T08:43:53;11.60;55.70
36280;DHT22;22317;47.936;12.742;2023-04-24T08:46:19;11.20;55.40
36280;DHT22;22317;47.936;12.742;2023-04-24T08:48:45;11.10;55.40
36280;DHT22;22317;47.936;12.742;2023-04-24T08:51:11;11.10;55.60
36280;DHT22;22317;47.936;12.742;2023-04-24T08:53:37;11.10;55.60
36280;DHT22;22317;47.936;12.742;2023-04-24T08:56:04;11.10;55.70
36280;DHT22;22317;47.936;12.742;2023-04-24T08:58:31;11.20;55.80
36280;DHT22;22317;47.936;12.742;2023-04-24T09:00:57;11.30;55.70
36280;DHT22;22317;47.936;12.742;2023-04-24T09:03:24;11.40;55.70
36280;DHT22;22317;47.936;12.742;2023-04-24T09:05:52;11.50;55.70
36280;DHT22;22317;47.936;12.742;2023-04-24T09:08:22;11.60;55.50
36280;DHT22;22317;47.936;12.742;2023-04-24T09:10:49;11.70;55.40
36280;DHT22;22317;47.936;12.742;2023-04-24T09:13:15;11.80;55.50
36280;DHT22;22317;47.936;12.742;2023-04-24T09:15:42;12.00;55.70
36280;DHT22;22317;47.936;12.742;2023-04-24T09:18:08;12.20;55.50
36280;DHT22;22317;47.936;12.742;2023-04-24T09:20:33;12.30;55.20
36280;DHT22;22317;47.936;12.742;2023-04-24T09:23:01;12.50;55.20
36280;DHT22;22317;47.936;12.742;2023-04-24T09:25:34;12.60;54.80
36280;DHT22;22317;47.936;12.742;2023-04-24T09:28:04;12.70;54.60
36280;DHT22;22317;47.936;12.742;2023-04-24T09:30:31;12.80;54.50
36280;DHT22;22317;47.936;12.742;2023-04-24T09:33:13;12.90;54.00
36280;DHT22;22317;47.936;12.742;2023-04-24T09:35:57;13.00;53.70
36280;DHT22;22317;47.936;12.742;2023-04-24T09:38:52;13.00;53.00
36280;DHT22;22317;47.936;12.742;2023-04-24T09:41:19;13.00;52.60
36280;DHT22;22317;47.936;12.742;2023-04-24T09:43:45;12.80;52.60
36280;DHT22;22317;47.936;12.742;2023-04-24T09:46:11;12.50;52.60
36280;DHT22;22317;47.936;12.742;2023-04-24T09:48:37;12.30;52.70
36280;DHT22;22317;47.936;12.742;2023-04-24T09:51:04;12.00;52.70
36280;DHT22;22317;47.936;12.742;2023-04-24T09:53:32;11.70;53.10
36280;DHT22;22317;47.936;12.742;2023-04-24T09:56:11;11.50;53.70
36280;DHT22;22317;47.936;12.742;2023-04-24T09:58:38;11.30;54.50
36280;DHT22;22317;47.936;12.742;2023-04-24T10:01:05;11.30;54.70
36280;DHT22;22317;47.936;12.742;2023-04-24T10:03:31;11.20;55.00
36280;DHT22;22317;47.936;12.742;2023-04-24T10:05:59;11.10;55.30
36280;DHT22;22317;47.936;12.742;2023-04-24T10:08:25;11.10;55.50
36280;DHT22;22317;47.936;12.742;2023-04-24T10:10:52;11.10;55.60
36280;DHT22;22317;47.936;12.742;2023-04-24T10:13:18;11.00;55.60
36280;DHT22;22317;47.936;12.742;2023-04-24T10:15:44;11.00;55.90
36280;DHT22;22317;47.936;12.742;2023-04-24T10:18:12;11.00;56.00
36280;DHT22;22317;47.936;12.742;2023-04-24T10:20:39;11.10;56.40
36280;DHT22;22317;47.936;12.742;2023-04-24T10:23:12;11.20;56.50
36280;DHT22;22317;47.936;12.742;2023-04-24T10:25:38;11.30;56.30
36280;DHT22;22317;47.936;12.742;2023-04-24T10:28:04;11.30;56.10
36280;DHT22;22317;47.936;12.742;2023-04-24T10:30:32;11.20;56.20
36280;DHT22;22317;47.936;12.742;2023-04-24T10:33:08;11.10;56.00
36280;DHT22;22317;47.936;12.742;2023-04-24T10:35:37;11.00;56.00
36280;DHT22;22317;47.936;12.742;2023-04-24T10:38:11;10.80;55.70
36280;DHT22;22317;47.936;12.742;2023-04-24T10:40:37;10.70;55.70
36280;DHT22;22317;47.936;12.742;2023-04-24T10:43:07;10.70;56.10
36280;DHT22;22317;47.936;12.742;2023-04-24T10:45:35;10.60;56.20
36280;DHT22;22317;47.936;12.742;2023-04-24T10:50:47;10.80;56.50
36280;DHT22;22317;47.936;12.742;2023-04-24T10:53:18;11.00;56.30
36280;DHT22;22317;47.936;12.742;2023-04-24T10:58:22;11.60;56.70
36280;DHT22;22317;47.936;12.742;2023-04-24T11:00:58;11.90;56.40
36280;DHT22;22317;47.936;12.742;2023-04-24T11:03:31;12.10;55.60
36280;DHT22;22317;47.936;12.742;2023-04-24T11:06:04;12.30;55.50
36280;DHT22;22317;47.936;12.742;2023-04-24T11:08:43;12.60;55.70
36280;DHT22;22317;47.936;12.742;2023-04-24T11:11:14;12.80;55.00
36280;DHT22;22317;47.936;12.742;2023-04-24T11:21:46;12.90;52.50
36280;DHT22;22317;47.936;12.742;2023-04-24T11:27:19;12.90;51.80
36280;DHT22;22317;47.936;12.742;2023-04-24T11:34:50;13.20;51.10
36280;DHT22;22317;47.936;12.742;2023-04-24T11:37:17;13.20;50.60
36280;DHT22;22317;47.936;12.742;2023-04-24T11:39:42;13.20;50.30
36280;DHT22;22317;47.936;12.742;2023-04-24T11:42:09;13.10;50.00
36280;DHT22;22317;47.936;12.742;2023-04-24T11:44:35;13.10;50.00
36280;DHT22;22317;47.936;12.742;2023-04-24T11:47:08;13.10;49.90
36280;DHT22;22317;47.936;12.742;2023-04-24T11:49:36;13.00;49.60
36280;DHT22;22317;47.936;12.742;2023-04-24T11:52:02;13.00;49.40
36280;DHT22;22317;47.936;12.742;2023-04-24T11:54:27;13.00;49.30
36280;DHT22;22317;47.936;12.742;2023-04-24T11:56:53;12.90;49.40
36280;DHT22;22317;47.936;12.742;2023-04-24T11:59:19;12.90;49.30
36280;DHT22;22317;47.936;12.742;2023-04-24T12:01:46;12.80;48.70
36280;DHT22;22317;47.936;12.742;2023-04-24T12:04:13;12.70;48.60
36280;DHT22;22317;47.936;12.742;2023-04-24T12:06:39;12.60;48.80
36280;DHT22;22317;47.936;12.742;2023-04-24T12:09:05;12.60;48.70
36280;DHT22;22317;47.936;12.742;2023-04-24T12:11:32;12.60;48.70
36280;DHT22;22317;47.936;12.742;2023-04-24T12:14:09;12.60;48.60
36280;DHT22;22317;47.936;12.742;2023-04-24T12:16:35;12.60;48.60
36280;DHT22;22317;47.936;12.742;2023-04-24T12:19:02;12.70;48.80
36280;DHT22;22317;47.936;12.742;2023-04-24T12:21:27;12.70;48.50
36280;DHT22;22317;47.936;12.742;2023-04-24T12:23:55;12.70;48.20
36280;DHT22;22317;47.936;12.742;2023-04-24T12:26:21;12.70;48.10
36280;DHT22;22317;47.936;12.742;2023-04-24T12:28:49;12.60;48.20
36280;DHT22;22317;47.936;12.742;2023-04-24T12:31:16;12.60;48.30
36280;DHT22;22317;47.936;12.742;2023-04-24T12:33:42;12.50;47.90
36280;DHT22;22317;47.936;12.742;2023-04-24T12:36:12;12.30;47.80
36280;DHT22;22317;47.936;12.742;2023-04-24T12:38:38;12.10;48.00
36280;DHT22;22317;47.936;12.742;2023-04-24T12:41:07;11.90;48.50
36280;DHT22;22317;47.936;12.742;2023-04-24T12:43:33;11.80;49.10
36280;DHT22;22317;47.936;12.742;2023-04-24T12:45:59;11.80;49.60
36280;DHT22;22317;47.936;12.742;2023-04-24T12:48:26;11.90;50.00
36280;DHT22;22317;47.936;12.742;2023-04-24T12:50:53;11.90;50.20
36280;DHT22;22317;47.936;12.742;2023-04-24T12:53:18;12.00;50.20
36280;DHT22;22317;47.936;12.742;2023-04-24T12:55:44;12.00;50.30
36280;DHT22;22317;47.936;12.742;2023-04-24T12:58:10;12.00;50.00
36280;DHT22;22317;47.936;12.742;2023-04-24T13:00:36;11.90;49.60
36280;DHT22;22317;47.936;12.742;2023-04-24T13:03:03;11.90;49.40
36280;DHT22;22317;47.936;12.742;2023-04-24T13:05:29;11.80;49.20
36280;DHT22;22317;47.936;12.742;2023-04-24T13:07:57;11.70;49.40
36280;DHT22;22317;47.936;12.742;2023-04-24T13:10:23;11.60;49.30
36280;DHT22;22317;47.936;12.742;2023-04-24T13:12:48;11.50;49.30
36280;DHT22;22317;47.936;12.742;2023-04-24T13:15:15;11.40;49.40
36280;DHT22;22317;47.936;12.742;2023-04-24T13:17:40;11.40;49.70
36280;DHT22;22317;47.936;12.742;2023-04-24T13:20:06;11.50;50.30
36280;DHT22;22317;47.936;12.742;2023-04-24T13:22:32;11.80;50.40
36280;DHT22;22317;47.936;12.742;2023-04-24T13:24:58;12.30;50.50
36280;DHT22;22317;47.936;12.742;2023-04-24T13:27:25;12.20;50.20
36280;DHT22;22317;47.936;12.742;2023-04-24T13:29:50;12.60;50.20
36280;DHT22;22317;47.936;12.742;2023-04-24T13:32:17;12.90;50.00
36280;DHT22;22317;47.936;12.742;2023-04-24T13:34:42;13.40;50.00
36280;DHT22;22317;47.936;12.742;2023-04-24T13:37:08;13.90;49.60
36280;DHT22;22317;47.936;12.742;2023-04-24T13:39:34;14.40;48.30
36280;DHT22;22317;47.936;12.742;2023-04-24T13:42:00;14.50;47.00
36280;DHT22;22317;47.936;12.742;2023-04-24T13:44:26;14.60;46.00
36280;DHT22;22317;47.936;12.742;2023-04-24T13:46:54;14.40;45.70
36280;DHT22;22317;47.936;12.742;2023-04-24T13:49:23;14.20;45.50
36280;DHT22;22317;47.936;12.742;2023-04-24T13:51:53;13.90;45.60
36280;DHT22;22317;47.936;12.742;2023-04-24T13:54:19;13.50;45.00
36280;DHT22;22317;47.936;12.742;2023-04-24T13:56:45;13.10;44.90
36280;DHT22;22317;47.936;12.742;2023-04-24T13:59:12;12.50;45.20
36280;DHT22;22317;47.936;12.742;2023-04-24T14:01:38;12.00;46.10
36280;DHT22;22317;47.936;12.742;2023-04-24T14:04:04;11.70;47.10
36280;DHT22;22317;47.936;12.742;2023-04-24T14:06:30;11.40;47.60
36280;DHT22;22317;47.936;12.742;2023-04-24T14:08:56;11.10;48.60
36280;DHT22;22317;47.936;12.742;2023-04-24T14:11:22;10.90;48.40
36280;DHT22;22317;47.936;12.742;2023-04-24T14:13:48;10.70;48.90
36280;DHT22;22317;47.936;12.742;2023-04-24T14:16:14;10.50;49.40
36280;DHT22;22317;47.936;12.742;2023-04-24T14:18:40;10.30;49.50
36280;DHT22;22317;47.936;12.742;2023-04-24T14:21:06;10.10;49.80
36280;DHT22;22317;47.936;12.742;2023-04-24T14:23:32;9.90;50.10
36280;DHT22;22317;47.936;12.742;2023-04-24T14:25:58;9.60;50.50
36280;DHT22;22317;47.936;12.742;2023-04-24T14:28:24;9.40;50.80
36280;DHT22;22317;47.936;12.742;2023-04-24T14:30:51;9.20;51.20
36280;DHT22;22317;47.936;12.742;2023-04-24T14:33:18;9.00;51.50
36280;DHT22;22317;47.936;12.742;2023-04-24T14:35:43;8.80;51.90
36280;DHT22;22317;47.936;12.742;2023-04-24T14:38:10;8.70;52.20
36280;DHT22;22317;47.936;12.742;2023-04-24T14:40:36;8.70;52.70
36280;DHT22;22317;47.936;12.742;2023-04-24T14:43:03;8.70;53.20
36280;DHT22;22317;47.936;12.742;2023-04-24T14:45:29;8.70;53.30
36280;DHT22;22317;47.936;12.742;2023-04-24T14:47:55;8.80;53.60
36280;DHT22;22317;47.936;12.742;2023-04-24T14:50:21;8.80;53.60
36280;DHT22;22317;47.936;12.742;2023-04-24T14:52:47;8.90;53.70
36280;DHT22;22317;47.936;12.742;2023-04-24T14:55:13;9.00;53.80
36280;DHT22;22317;47.936;12.742;2023-04-24T14:57:39;9.00;54.00
36280;DHT22;22317;47.936;12.742;2023-04-24T15:00:08;9.10;54.00
36280;DHT22;22317;47.936;12.742;2023-04-24T15:02:36;9.20;54.40
36280;DHT22;22317;47.936;12.742;2023-04-24T15:05:06;9.30;54.50
36280;DHT22;22317;47.936;12.742;2023-04-24T15:07:32;9.50;54.70
36280;DHT22;22317;47.936;12.742;2023-04-24T15:09:58;9.70;54.70
36280;DHT22;22317;47.936;12.742;2023-04-24T15:12:24;9.90;54.80
36280;DHT22;22317;47.936;12.742;2023-04-24T15:14:50;10.10;54.50
36280;DHT22;22317;47.936;12.742;2023-04-24T15:17:16;10.20;54.30
36280;DHT22;22317;47.936;12.742;2023-04-24T15:19:41;10.20;53.80
36280;DHT22;22317;47.936;12.742;2023-04-24T15:22:07;10.20;53.70
36280;DHT22;22317;47.936;12.742;2023-04-24T15:24:33;10.10;53.40
36280;DHT22;22317;47.936;12.742;2023-04-24T15:26:59;10.10;53.20
36280;DHT22;22317;47.936;12.742;2023-04-24T15:29:27;10.00;53.10
36280;DHT22;22317;47.936;12.742;2023-04-24T15:31:53;10.00;53.40
36280;DHT22;22317;47.936;12.742;2023-04-24T15:34:18;10.00;53.30
36280;DHT22;22317;47.936;12.742;2023-04-24T15:36:44;10.10;53.50
36280;DHT22;22317;47.936;12.742;2023-04-24T15:39:10;10.20;53.40
36280;DHT22;22317;47.936;12.742;2023-04-24T15:41:36;10.30;53.30
36280;DHT22;22317;47.936;12.742;2023-04-24T15:44:02;10.30;53.20
36280;DHT22;22317;47.936;12.742;2023-04-24T15:46:28;10.40;53.10